Pagina principale
METAR-TAF:

METAR-TAF

Aeroporti :

Aeroporto di Trieste-Ronchi dei Legionari

Trieste / Ronchi dei Legionari, Italia

latitudine: 45-49N, longitudine: 013-29E, altezza: 12 m

Osservazione

Il bollettino è stato emesso 38 minuti fa, alle 20:20 UTC
Vento 2 kt da direzioni variabili
Temperature 17°C
Umidità 55%
Pressione 1019 hPa
Visibilità 10 km o più
Nubi sparse ad un'altezza di 8000 ft

METAR: LIPQ 222020Z VRB02KT 9999 SCT080 17/08 Q1019

Ora: 22:58 (20:58 UTC)

Previsione

Il bollettino è stato emesso 3 ore e 58 minuti fa, alle 17:00 UTC
Previsione valida dal 22 alle 18 UTC al 23 alle 18 UTC
Vento 12 kt da est/nord-est
Visibilità 10 km o più
Nubi sparse ad un'altezza di 3000 ft

TAF: LIPQ 221700Z 2218/2318 07012KT 9999 SCT030

Osservazioni e previsioni meteorologiche di più di 4000 aeroporti (messaggi METAR e TAF).

Le stazioni disponibili sono rappresentate dai dischi gialli e rossi sulla carta.

Puntare il mouse per vedere il nome della stazione.

Clicca sopra per visualizzare le osservazioni e previsioni meteorologiche.

Per cambiare la mappa : fare clic sui pulsanti verdi con una croce nera per ingrandire, il pulsante verde con un trattino per diminuire, o sulla freccia verde per le mappe adiacenti.


METAR-TAF: